sensor_id;sensor_type;location;lat;lon;timestamp;pressure;altitude;pressure_sealevel;temperature;humidity
77323;BME280;66384;51.052;9.850;2023-07-31T00:02:28;98278.51;;;16.60;67.26
77323;BME280;66384;51.052;9.850;2023-07-31T00:05:01;98278.15;;;16.61;67.34
77323;BME280;66384;51.052;9.850;2023-07-31T00:07:33;98277.46;;;16.62;67.40
77323;BME280;66384;51.052;9.850;2023-07-31T00:10:05;98270.48;;;16.64;67.45
77323;BME280;66384;51.052;9.850;2023-07-31T00:12:37;98270.48;;;16.67;67.49
77323;BME280;66384;51.052;9.850;2023-07-31T00:15:10;98271.50;;;16.70;67.53
77323;BME280;66384;51.052;9.850;2023-07-31T00:17:41;98265.08;;;16.72;67.42
77323;BME280;66384;51.052;9.850;2023-07-31T00:20:13;98258.11;;;16.75;67.46
77323;BME280;66384;51.052;9.850;2023-07-31T00:22:45;98258.98;;;16.75;67.38
77323;BME280;66384;51.052;9.850;2023-07-31T00:25:17;98256.73;;;16.75;67.50
77323;BME280;66384;51.052;9.850;2023-07-31T00:27:48;98250.83;;;16.75;67.57
77323;BME280;66384;51.052;9.850;2023-07-31T00:30:20;98247.70;;;16.76;67.56
77323;BME280;66384;51.052;9.850;2023-07-31T00:32:52;98245.11;;;16.76;67.41
77323;BME280;66384;51.052;9.850;2023-07-31T00:35:24;98246.31;;;16.75;67.64
77323;BME280;66384;51.052;9.850;2023-07-31T00:37:55;98245.61;;;16.72;67.67
77323;BME280;66384;51.052;9.850;2023-07-31T00:40:27;98237.66;;;16.69;67.57
77323;BME280;66384;51.052;9.850;2023-07-31T00:42:59;98238.71;;;16.68;67.72
77323;BME280;66384;51.052;9.850;2023-07-31T00:45:33;98236.80;;;16.69;67.94
77323;BME280;66384;51.052;9.850;2023-07-31T00:48:07;98232.25;;;16.72;67.97
77323;BME280;66384;51.052;9.850;2023-07-31T00:50:39;98231.90;;;16.75;67.97
77323;BME280;66384;51.052;9.850;2023-07-31T00:53:11;98225.13;;;16.77;67.96
77323;BME280;66384;51.052;9.850;2023-07-31T00:55:43;98226.48;;;16.84;67.78
77323;BME280;66384;51.052;9.850;2023-07-31T00:58:15;98226.98;;;16.87;67.71
77323;BME280;66384;51.052;9.850;2023-07-31T01:00:47;98226.10;;;16.90;67.64
77323;BME280;66384;51.052;9.850;2023-07-31T01:03:20;98221.41;;;16.90;67.50
77323;BME280;66384;51.052;9.850;2023-07-31T01:05:59;98218.30;;;16.89;67.53
77323;BME280;66384;51.052;9.850;2023-07-31T01:08:37;98216.74;;;16.86;67.67
77323;BME280;66384;51.052;9.850;2023-07-31T01:11:19;98212.23;;;16.86;67.76
77323;BME280;66384;51.052;9.850;2023-07-31T01:13:54;98203.04;;;16.84;67.72
77323;BME280;66384;51.052;9.850;2023-07-31T01:16:26;98198.69;;;16.84;67.84
77323;BME280;66384;51.052;9.850;2023-07-31T01:18:58;98201.99;;;16.83;67.36
77323;BME280;66384;51.052;9.850;2023-07-31T01:21:45;98201.51;;;16.80;67.07
77323;BME280;66384;51.052;9.850;2023-07-31T01:24:32;98202.35;;;16.82;66.98
77323;BME280;66384;51.052;9.850;2023-07-31T01:27:09;98198.89;;;16.80;66.44
77323;BME280;66384;51.052;9.850;2023-07-31T01:29:45;98194.92;;;16.77;66.47
77323;BME280;66384;51.052;9.850;2023-07-31T01:32:19;98197.16;;;16.75;66.35
77323;BME280;66384;51.052;9.850;2023-07-31T01:34:51;98185.38;;;16.71;66.03
77323;BME280;66384;51.052;9.850;2023-07-31T01:37:29;98185.75;;;16.66;66.01
77323;BME280;66384;51.052;9.850;2023-07-31T01:40:00;98175.35;;;16.63;66.14
77323;BME280;66384;51.052;9.850;2023-07-31T01:42:32;98174.33;;;16.61;65.94
77323;BME280;66384;51.052;9.850;2023-07-31T01:45:05;98173.65;;;16.58;65.83
77323;BME280;66384;51.052;9.850;2023-07-31T01:47:37;98171.91;;;16.57;65.96
77323;BME280;66384;51.052;9.850;2023-07-31T01:50:10;98177.30;;;16.58;66.14
77323;BME280;66384;51.052;9.850;2023-07-31T01:52:41;98172.95;;;16.58;66.02
77323;BME280;66384;51.052;9.850;2023-07-31T01:55:13;98172.09;;;16.57;65.93
77323;BME280;66384;51.052;9.850;2023-07-31T01:57:44;98170.89;;;16.57;65.86
77323;BME280;66384;51.052;9.850;2023-07-31T02:00:16;98171.05;;;16.57;65.97
77323;BME280;66384;51.052;9.850;2023-07-31T02:02:48;98165.84;;;16.57;65.98
77323;BME280;66384;51.052;9.850;2023-07-31T02:05:19;98166.20;;;16.56;66.14
77323;BME280;66384;51.052;9.850;2023-07-31T02:07:51;98171.59;;;16.54;66.24
77323;BME280;66384;51.052;9.850;2023-07-31T02:10:22;98166.23;;;16.49;66.54
77323;BME280;66384;51.052;9.850;2023-07-31T02:12:54;98164.66;;;16.50;66.65
77323;BME280;66384;51.052;9.850;2023-07-31T02:15:25;98166.05;;;16.51;66.85
77323;BME280;66384;51.052;9.850;2023-07-31T02:17:57;98163.96;;;16.50;66.82
77323;BME280;66384;51.052;9.850;2023-07-31T02:20:29;98160.52;;;16.48;67.00
77323;BME280;66384;51.052;9.850;2023-07-31T02:23:00;98156.20;;;16.45;67.12
77323;BME280;66384;51.052;9.850;2023-07-31T02:25:32;98151.53;;;16.42;67.25
77323;BME280;66384;51.052;9.850;2023-07-31T02:28:03;98152.75;;;16.38;67.57
77323;BME280;66384;51.052;9.850;2023-07-31T02:30:35;98151.22;;;16.36;67.74
77323;BME280;66384;51.052;9.850;2023-07-31T02:33:07;98150.86;;;16.35;67.85
77323;BME280;66384;51.052;9.850;2023-07-31T02:35:38;98147.41;;;16.35;67.87
77323;BME280;66384;51.052;9.850;2023-07-31T02:38:10;98145.51;;;16.32;67.83
77323;BME280;66384;51.052;9.850;2023-07-31T02:40:41;98137.89;;;16.29;68.10
77323;BME280;66384;51.052;9.850;2023-07-31T02:43:13;98135.49;;;16.25;68.23
77323;BME280;66384;51.052;9.850;2023-07-31T02:45:45;98137.75;;;16.22;68.40
77323;BME280;66384;51.052;9.850;2023-07-31T02:48:16;98143.31;;;16.21;68.49
77323;BME280;66384;51.052;9.850;2023-07-31T02:50:48;98138.83;;;16.17;68.59
77323;BME280;66384;51.052;9.850;2023-07-31T02:53:20;98138.33;;;16.14;68.81
77323;BME280;66384;51.052;9.850;2023-07-31T02:55:53;98149.07;;;16.14;68.93
77323;BME280;66384;51.052;9.850;2023-07-31T02:58:25;98151.85;;;16.14;69.07
77323;BME280;66384;51.052;9.850;2023-07-31T03:00:56;98144.58;;;16.13;69.21
77323;BME280;66384;51.052;9.850;2023-07-31T03:03:29;98142.68;;;16.10;69.55
77323;BME280;66384;51.052;9.850;2023-07-31T03:06:01;98143.22;;;16.06;69.67
77323;BME280;66384;51.052;9.850;2023-07-31T03:08:33;98135.95;;;16.02;69.73
77323;BME280;66384;51.052;9.850;2023-07-31T03:11:04;98135.44;;;16.01;69.88
77323;BME280;66384;51.052;9.850;2023-07-31T03:13:36;98137.01;;;15.99;70.34
77323;BME280;66384;51.052;9.850;2023-07-31T03:16:07;98134.92;;;15.97;70.30
77323;BME280;66384;51.052;9.850;2023-07-31T03:18:39;98140.13;;;16.00;70.34
77323;BME280;66384;51.052;9.850;2023-07-31T03:21:12;98139.95;;;16.00;70.21
77323;BME280;66384;51.052;9.850;2023-07-31T03:23:43;98134.76;;;15.98;70.41
77323;BME280;66384;51.052;9.850;2023-07-31T03:26:15;98132.16;;;15.98;70.49
77323;BME280;66384;51.052;9.850;2023-07-31T03:28:46;98126.25;;;15.99;70.60
77323;BME280;66384;51.052;9.850;2023-07-31T03:31:18;98134.41;;;15.99;70.86
77323;BME280;66384;51.052;9.850;2023-07-31T03:33:49;98138.05;;;15.98;70.74
77323;BME280;66384;51.052;9.850;2023-07-31T03:36:21;98133.71;;;15.99;70.63
77323;BME280;66384;51.052;9.850;2023-07-31T03:38:53;98137.52;;;15.99;70.96
77323;BME280;66384;51.052;9.850;2023-07-31T03:41:25;98138.39;;;16.01;70.92
77323;BME280;66384;51.052;9.850;2023-07-31T03:43:57;98138.38;;;16.02;70.97
77323;BME280;66384;51.052;9.850;2023-07-31T03:46:28;98138.88;;;16.05;71.00
77323;BME280;66384;51.052;9.850;2023-07-31T03:49:00;98141.13;;;16.07;71.17
77323;BME280;66384;51.052;9.850;2023-07-31T03:51:32;98141.66;;;16.06;71.19
77323;BME280;66384;51.052;9.850;2023-07-31T03:54:03;98140.11;;;16.04;71.32
77323;BME280;66384;51.052;9.850;2023-07-31T03:56:35;98138.39;;;16.01;71.37
77323;BME280;66384;51.052;9.850;2023-07-31T03:59:09;98134.23;;;16.01;71.37
77323;BME280;66384;51.052;9.850;2023-07-31T04:01:41;98130.40;;;16.02;71.50
77323;BME280;66384;51.052;9.850;2023-07-31T04:04:14;98132.48;;;16.02;71.43
77323;BME280;66384;51.052;9.850;2023-07-31T04:06:45;98134.39;;;15.99;71.60
77323;BME280;66384;51.052;9.850;2023-07-31T04:09:17;98137.89;;;15.95;71.74
77323;BME280;66384;51.052;9.850;2023-07-31T04:11:48;98133.05;;;15.91;71.70
77323;BME280;66384;51.052;9.850;2023-07-31T04:14:20;98130.81;;;15.89;71.81
77323;BME280;66384;51.052;9.850;2023-07-31T04:16:52;98127.16;;;15.88;71.93
77323;BME280;66384;51.052;9.850;2023-07-31T04:19:24;98126.48;;;15.88;71.90
77323;BME280;66384;51.052;9.850;2023-07-31T04:21:56;98125.42;;;15.89;71.73
77323;BME280;66384;51.052;9.850;2023-07-31T04:24:27;98126.61;;;15.92;71.65
77323;BME280;66384;51.052;9.850;2023-07-31T04:26:59;98124.01;;;15.95;71.70
77323;BME280;66384;51.052;9.850;2023-07-31T04:29:30;98122.61;;;15.98;71.70
77323;BME280;66384;51.052;9.850;2023-07-31T04:32:02;98118.95;;;16.00;71.69
77323;BME280;66384;51.052;9.850;2023-07-31T04:34:33;98116.35;;;16.02;71.67
77323;BME280;66384;51.052;9.850;2023-07-31T04:37:05;98113.21;;;16.05;71.48
77323;BME280;66384;51.052;9.850;2023-07-31T04:39:37;98108.17;;;16.05;71.37
77323;BME280;66384;51.052;9.850;2023-07-31T04:42:08;98111.64;;;16.07;71.18
77323;BME280;66384;51.052;9.850;2023-07-31T04:44:41;98114.57;;;16.10;71.30
77323;BME280;66384;51.052;9.850;2023-07-31T04:47:12;98114.39;;;16.12;71.03
77323;BME280;66384;51.052;9.850;2023-07-31T04:49:44;98115.75;;;16.16;70.88
77323;BME280;66384;51.052;9.850;2023-07-31T04:52:15;98121.12;;;16.19;70.89
77323;BME280;66384;51.052;9.850;2023-07-31T04:54:47;98121.97;;;16.22;70.76
77323;BME280;66384;51.052;9.850;2023-07-31T04:57:18;98123.35;;;16.24;70.77
77323;BME280;66384;51.052;9.850;2023-07-31T04:59:50;98121.95;;;16.27;70.88
77323;BME280;66384;51.052;9.850;2023-07-31T05:02:22;98126.26;;;16.30;70.72
77323;BME280;66384;51.052;9.850;2023-07-31T05:04:55;98120.70;;;16.32;70.73
77323;BME280;66384;51.052;9.850;2023-07-31T05:07:27;98119.46;;;16.34;70.81
77323;BME280;66384;51.052;9.850;2023-07-31T05:09:59;98111.64;;;16.36;70.84
77323;BME280;66384;51.052;9.850;2023-07-31T05:12:30;98110.76;;;16.39;70.81
77323;BME280;66384;51.052;9.850;2023-07-31T05:15:02;98113.36;;;16.41;70.80
77323;BME280;66384;51.052;9.850;2023-07-31T05:17:34;98115.95;;;16.43;70.76
77323;BME280;66384;51.052;9.850;2023-07-31T05:20:09;98112.81;;;16.45;70.88
77323;BME280;66384;51.052;9.850;2023-07-31T05:22:41;98115.23;;;16.46;70.72
77323;BME280;66384;51.052;9.850;2023-07-31T05:25:12;98115.73;;;16.47;70.69
77323;BME280;66384;51.052;9.850;2023-07-31T05:27:44;98116.42;;;16.49;70.78
77323;BME280;66384;51.052;9.850;2023-07-31T05:30:16;98116.21;;;16.52;70.67
77323;BME280;66384;51.052;9.850;2023-07-31T05:32:47;98117.59;;;16.55;70.65
77323;BME280;66384;51.052;9.850;2023-07-31T05:35:19;98120.35;;;16.57;70.69
77323;BME280;66384;51.052;9.850;2023-07-31T05:37:51;98121.73;;;16.59;70.63
77323;BME280;66384;51.052;9.850;2023-07-31T05:40:22;98124.66;;;16.62;70.65
77323;BME280;66384;51.052;9.850;2023-07-31T05:42:54;98122.91;;;16.64;70.60
77323;BME280;66384;51.052;9.850;2023-07-31T05:45:26;98118.92;;;16.64;70.48
77323;BME280;66384;51.052;9.850;2023-07-31T05:47:58;98118.58;;;16.64;70.36
77323;BME280;66384;51.052;9.850;2023-07-31T05:50:29;98116.66;;;16.64;70.33
77323;BME280;66384;51.052;9.850;2023-07-31T05:53:01;98116.11;;;16.68;70.53
77323;BME280;66384;51.052;9.850;2023-07-31T05:55:32;98113.14;;;16.71;70.33
77323;BME280;66384;51.052;9.850;2023-07-31T05:58:04;98118.51;;;16.72;70.28
77323;BME280;66384;51.052;9.850;2023-07-31T06:00:35;98118.33;;;16.73;70.23
77323;BME280;66384;51.052;9.850;2023-07-31T06:03:07;98116.92;;;16.74;70.31
77323;BME280;66384;51.052;9.850;2023-07-31T06:05:39;98116.96;;;16.69;70.32
77323;BME280;66384;51.052;9.850;2023-07-31T06:08:10;98113.16;;;16.67;70.48
77323;BME280;66384;51.052;9.850;2023-07-31T06:10:42;98113.19;;;16.66;70.44
77323;BME280;66384;51.052;9.850;2023-07-31T06:13:14;98115.60;;;16.66;70.42
77323;BME280;66384;51.052;9.850;2023-07-31T06:15:45;98110.90;;;16.68;70.41
77323;BME280;66384;51.052;9.850;2023-07-31T06:18:17;98111.40;;;16.70;70.35
77323;BME280;66384;51.052;9.850;2023-07-31T06:20:48;98108.98;;;16.71;70.33
77323;BME280;66384;51.052;9.850;2023-07-31T06:23:23;98113.82;;;16.72;70.35
77323;BME280;66384;51.052;9.850;2023-07-31T06:25:55;98114.52;;;16.71;70.37
77323;BME280;66384;51.052;9.850;2023-07-31T06:28:30;98117.65;;;16.71;70.53
77323;BME280;66384;51.052;9.850;2023-07-31T06:31:02;98113.65;;;16.70;70.62
77323;BME280;66384;51.052;9.850;2023-07-31T06:33:34;98112.96;;;16.70;70.47
77323;BME280;66384;51.052;9.850;2023-07-31T06:36:06;98106.88;;;16.71;70.70
77323;BME280;66384;51.052;9.850;2023-07-31T06:38:37;98109.98;;;16.76;70.47
77323;BME280;66384;51.052;9.850;2023-07-31T06:41:09;98105.63;;;16.81;70.44
77323;BME280;66384;51.052;9.850;2023-07-31T06:43:41;98105.91;;;16.89;70.49
77323;BME280;66384;51.052;9.850;2023-07-31T06:46:13;98103.27;;;16.92;70.28
77323;BME280;66384;51.052;9.850;2023-07-31T06:48:44;98100.30;;;16.93;70.24
77323;BME280;66384;51.052;9.850;2023-07-31T06:51:15;98097.70;;;16.95;70.24
77323;BME280;66384;51.052;9.850;2023-07-31T06:53:47;98091.41;;;16.98;70.15
77323;BME280;66384;51.052;9.850;2023-07-31T06:56:20;98089.98;;;17.02;70.28
77323;BME280;66384;51.052;9.850;2023-07-31T06:58:52;98087.47;;;17.10;70.13
77323;BME280;66384;51.052;9.850;2023-07-31T07:01:24;98080.09;;;17.18;70.18
77323;BME280;66384;51.052;9.850;2023-07-31T07:03:56;98077.92;;;17.25;69.97
77323;BME280;66384;51.052;9.850;2023-07-31T07:06:28;98075.78;;;17.31;69.88
77323;BME280;66384;51.052;9.850;2023-07-31T07:08:59;98079.72;;;17.36;69.82
77323;BME280;66384;51.052;9.850;2023-07-31T07:11:31;98083.69;;;17.40;69.51
77323;BME280;66384;51.052;9.850;2023-07-31T07:14:02;98084.00;;;17.42;69.50
77323;BME280;66384;51.052;9.850;2023-07-31T07:16:34;98088.83;;;17.46;69.23
77323;BME280;66384;51.052;9.850;2023-07-31T07:19:06;98089.68;;;17.47;69.21
77323;BME280;66384;51.052;9.850;2023-07-31T07:21:37;98088.42;;;17.52;69.44
77323;BME280;66384;51.052;9.850;2023-07-31T07:24:09;98084.71;;;17.56;69.32
77323;BME280;66384;51.052;9.850;2023-07-31T07:26:40;98085.55;;;17.59;69.22
77323;BME280;66384;51.052;9.850;2023-07-31T07:29:12;98089.54;;;17.60;69.16
77323;BME280;66384;51.052;9.850;2023-07-31T07:31:43;98090.21;;;17.62;69.15
77323;BME280;66384;51.052;9.850;2023-07-31T07:34:15;98089.34;;;17.62;69.14
77323;BME280;66384;51.052;9.850;2023-07-31T07:36:46;98094.04;;;17.61;69.29
77323;BME280;66384;51.052;9.850;2023-07-31T07:39:18;98100.27;;;17.63;69.41
77323;BME280;66384;51.052;9.850;2023-07-31T07:41:50;98092.96;;;17.64;69.21
77323;BME280;66384;51.052;9.850;2023-07-31T07:44:23;98093.95;;;17.68;69.40
77323;BME280;66384;51.052;9.850;2023-07-31T07:46:55;98087.44;;;17.75;69.42
77323;BME280;66384;51.052;9.850;2023-07-31T07:49:27;98086.15;;;17.83;69.36
77323;BME280;66384;51.052;9.850;2023-07-31T07:51:59;98092.31;;;17.91;69.28
77323;BME280;66384;51.052;9.850;2023-07-31T07:54:31;98092.24;;;17.97;69.23
77323;BME280;66384;51.052;9.850;2023-07-31T07:57:03;98092.36;;;18.01;69.25
77323;BME280;66384;51.052;9.850;2023-07-31T07:59:35;98096.16;;;18.03;69.07
77323;BME280;66384;51.052;9.850;2023-07-31T08:02:06;98090.93;;;18.03;68.84
77323;BME280;66384;51.052;9.850;2023-07-31T08:04:38;98087.09;;;18.05;68.90
77323;BME280;66384;51.052;9.850;2023-07-31T08:07:11;98089.11;;;18.10;68.77
77323;BME280;66384;51.052;9.850;2023-07-31T08:09:43;98083.85;;;18.12;68.75
77323;BME280;66384;51.052;9.850;2023-07-31T08:12:15;98078.80;;;18.13;68.54
77323;BME280;66384;51.052;9.850;2023-07-31T08:14:46;98077.56;;;18.15;68.25
77323;BME280;66384;51.052;9.850;2023-07-31T08:17:18;98070.17;;;18.19;68.18
77323;BME280;66384;51.052;9.850;2023-07-31T08:19:50;98071.48;;;18.26;68.12
77323;BME280;66384;51.052;9.850;2023-07-31T08:22:21;98061.62;;;18.33;67.98
77323;BME280;66384;51.052;9.850;2023-07-31T08:24:53;98060.33;;;18.39;67.82
77323;BME280;66384;51.052;9.850;2023-07-31T08:27:25;98063.70;;;18.45;67.59
77323;BME280;66384;51.052;9.850;2023-07-31T08:29:56;98060.14;;;18.51;67.30
77323;BME280;66384;51.052;9.850;2023-07-31T08:32:28;98056.04;;;18.56;67.41
77323;BME280;66384;51.052;9.850;2023-07-31T08:34:59;98054.01;;;18.64;67.35
77323;BME280;66384;51.052;9.850;2023-07-31T08:37:31;98052.84;;;18.71;67.16
77323;BME280;66384;51.052;9.850;2023-07-31T08:40:03;98051.40;;;18.76;66.85
77323;BME280;66384;51.052;9.850;2023-07-31T08:42:40;98047.71;;;18.78;67.03
77323;BME280;66384;51.052;9.850;2023-07-31T08:45:16;98045.69;;;18.83;67.18
77323;BME280;66384;51.052;9.850;2023-07-31T08:47:50;98042.70;;;18.85;66.95
77323;BME280;66384;51.052;9.850;2023-07-31T08:50:22;98053.33;;;18.85;66.57
77323;BME280;66384;51.052;9.850;2023-07-31T08:52:54;98056.35;;;18.81;66.02
77323;BME280;66384;51.052;9.850;2023-07-31T08:55:28;98054.67;;;18.77;66.35
77323;BME280;66384;51.052;9.850;2023-07-31T08:58:02;98052.98;;;18.73;66.56
77323;BME280;66384;51.052;9.850;2023-07-31T09:00:35;98066.45;;;18.70;66.55
77323;BME280;66384;51.052;9.850;2023-07-31T09:03:11;98073.20;;;18.61;66.46
77323;BME280;66384;51.052;9.850;2023-07-31T09:05:46;98073.28;;;18.56;66.77
77323;BME280;66384;51.052;9.850;2023-07-31T09:08:19;98070.66;;;18.57;67.09
77323;BME280;66384;51.052;9.850;2023-07-31T09:10:51;98068.13;;;18.63;67.34
77323;BME280;66384;51.052;9.850;2023-07-31T09:13:23;98067.81;;;18.72;67.26
77323;BME280;66384;51.052;9.850;2023-07-31T09:15:55;98064.71;;;18.81;67.40
77323;BME280;66384;51.052;9.850;2023-07-31T09:18:26;98062.28;;;18.91;67.30
77323;BME280;66384;51.052;9.850;2023-07-31T09:21:05;98062.37;;;19.06;67.10
77323;BME280;66384;51.052;9.850;2023-07-31T09:23:45;98063.36;;;19.18;67.17
77323;BME280;66384;51.052;9.850;2023-07-31T09:26:31;98065.34;;;19.25;66.56
77323;BME280;66384;51.052;9.850;2023-07-31T09:29:06;98064.17;;;19.30;66.15
77323;BME280;66384;51.052;9.850;2023-07-31T09:31:42;98066.19;;;19.35;65.71
77323;BME280;66384;51.052;9.850;2023-07-31T09:34:15;98066.36;;;19.34;65.20
77323;BME280;66384;51.052;9.850;2023-07-31T09:36:49;98066.99;;;19.29;64.80
77323;BME280;66384;51.052;9.850;2023-07-31T09:39:23;98069.59;;;19.21;64.23
77323;BME280;66384;51.052;9.850;2023-07-31T09:41:56;98065.33;;;19.16;64.68
77323;BME280;66384;51.052;9.850;2023-07-31T09:44:41;98069.53;;;19.15;64.68
77323;BME280;66384;51.052;9.850;2023-07-31T09:47:23;98061.88;;;19.14;64.64
77323;BME280;66384;51.052;9.850;2023-07-31T09:49:57;98057.27;;;19.09;64.84
77323;BME280;66384;51.052;9.850;2023-07-31T09:52:29;98048.32;;;19.02;64.75
77323;BME280;66384;51.052;9.850;2023-07-31T09:55:01;98046.86;;;18.96;64.50
77323;BME280;66384;51.052;9.850;2023-07-31T09:57:32;98053.44;;;18.88;64.78
77323;BME280;66384;51.052;9.850;2023-07-31T10:00:05;98052.81;;;18.84;65.02
77323;BME280;66384;51.052;9.850;2023-07-31T10:02:39;98057.84;;;18.86;65.26
77323;BME280;66384;51.052;9.850;2023-07-31T10:05:14;98053.63;;;18.87;65.56
77323;BME280;66384;51.052;9.850;2023-07-31T10:07:53;98053.12;;;18.86;65.63
77323;BME280;66384;51.052;9.850;2023-07-31T10:10:26;98045.86;;;18.83;66.10
77323;BME280;66384;51.052;9.850;2023-07-31T10:12:59;98039.51;;;18.78;66.35
77323;BME280;66384;51.052;9.850;2023-07-31T10:15:32;98039.20;;;18.76;66.11
77323;BME280;66384;51.052;9.850;2023-07-31T10:18:07;98036.07;;;18.76;66.33
77323;BME280;66384;51.052;9.850;2023-07-31T10:20:38;98033.04;;;18.79;66.56
77323;BME280;66384;51.052;9.850;2023-07-31T10:23:10;98031.39;;;18.84;66.29
77323;BME280;66384;51.052;9.850;2023-07-31T10:25:44;98028.52;;;18.88;66.20
77323;BME280;66384;51.052;9.850;2023-07-31T10:28:16;98033.71;;;18.91;66.37
77323;BME280;66384;51.052;9.850;2023-07-31T10:30:48;98034.19;;;18.93;66.52
77323;BME280;66384;51.052;9.850;2023-07-31T10:33:21;98032.04;;;18.96;66.64
77323;BME280;66384;51.052;9.850;2023-07-31T10:36:13;98032.27;;;19.03;66.53
77323;BME280;66384;51.052;9.850;2023-07-31T10:38:45;98027.96;;;19.09;66.69
77323;BME280;66384;51.052;9.850;2023-07-31T10:41:17;98030.67;;;19.14;66.67
77323;BME280;66384;51.052;9.850;2023-07-31T10:43:49;98024.13;;;19.19;66.60
77323;BME280;66384;51.052;9.850;2023-07-31T10:46:25;98024.05;;;19.23;66.54
77323;BME280;66384;51.052;9.850;2023-07-31T10:49:03;98021.23;;;19.24;66.60
77323;BME280;66384;51.052;9.850;2023-07-31T10:51:37;98013.15;;;19.26;66.76
77323;BME280;66384;51.052;9.850;2023-07-31T10:54:16;98013.41;;;19.31;66.56
77323;BME280;66384;51.052;9.850;2023-07-31T10:56:51;98009.69;;;19.35;66.62
77323;BME280;66384;51.052;9.850;2023-07-31T10:59:27;98013.23;;;19.32;66.65
77323;BME280;66384;51.052;9.850;2023-07-31T11:02:06;98010.98;;;19.31;66.82
77323;BME280;66384;51.052;9.850;2023-07-31T11:05:08;98004.29;;;19.35;66.65
77323;BME280;66384;51.052;9.850;2023-07-31T11:07:49;98001.67;;;19.34;66.94
77323;BME280;66384;51.052;9.850;2023-07-31T11:10:21;98004.23;;;19.38;67.16
77323;BME280;66384;51.052;9.850;2023-07-31T11:12:55;97996.28;;;19.34;66.79
77323;BME280;66384;51.052;9.850;2023-07-31T11:15:29;97998.23;;;19.32;66.63
77323;BME280;66384;51.052;9.850;2023-07-31T11:18:01;97995.76;;;19.34;66.58
77323;BME280;66384;51.052;9.850;2023-07-31T11:20:37;97992.92;;;19.36;66.31
77323;BME280;66384;51.052;9.850;2023-07-31T11:23:10;97994.13;;;19.37;66.20
77323;BME280;66384;51.052;9.850;2023-07-31T11:25:42;97991.70;;;19.45;66.09
77323;BME280;66384;51.052;9.850;2023-07-31T11:28:16;97988.58;;;19.52;65.96
77323;BME280;66384;51.052;9.850;2023-07-31T11:30:48;97983.75;;;19.67;65.94
77323;BME280;66384;51.052;9.850;2023-07-31T11:33:20;97988.23;;;19.78;65.88
77323;BME280;66384;51.052;9.850;2023-07-31T11:35:52;97994.66;;;19.87;65.00
77323;BME280;66384;51.052;9.850;2023-07-31T11:38:25;97992.67;;;19.90;64.37
77323;BME280;66384;51.052;9.850;2023-07-31T11:40:58;97989.30;;;19.92;63.89
77323;BME280;66384;51.052;9.850;2023-07-31T11:43:31;97984.67;;;19.96;63.55
77323;BME280;66384;51.052;9.850;2023-07-31T11:46:03;97975.70;;;20.00;62.85
77323;BME280;66384;51.052;9.850;2023-07-31T11:48:39;97974.50;;;19.98;62.27
77323;BME280;66384;51.052;9.850;2023-07-31T11:51:12;97965.65;;;19.95;62.60
77323;BME280;66384;51.052;9.850;2023-07-31T11:53:47;97965.94;;;19.91;62.79
77323;BME280;66384;51.052;9.850;2023-07-31T11:56:22;97967.33;;;19.84;62.47
77323;BME280;66384;51.052;9.850;2023-07-31T11:58:57;97964.60;;;19.73;62.43
77323;BME280;66384;51.052;9.850;2023-07-31T12:01:29;97962.02;;;19.63;62.48
77323;BME280;66384;51.052;9.850;2023-07-31T12:04:02;97966.02;;;19.54;62.09
77323;BME280;66384;51.052;9.850;2023-07-31T12:06:37;97970.05;;;19.45;62.12
77323;BME280;66384;51.052;9.850;2023-07-31T12:09:09;97967.29;;;19.37;62.47
77323;BME280;66384;51.052;9.850;2023-07-31T12:11:50;97966.15;;;19.32;62.88
77323;BME280;66384;51.052;9.850;2023-07-31T12:14:25;97962.33;;;19.31;62.94
77323;BME280;66384;51.052;9.850;2023-07-31T12:17:00;97963.90;;;19.31;62.47
77323;BME280;66384;51.052;9.850;2023-07-31T12:19:32;97959.54;;;19.32;62.40
77323;BME280;66384;51.052;9.850;2023-07-31T12:22:12;97957.09;;;19.32;62.17
77323;BME280;66384;51.052;9.850;2023-07-31T12:24:45;97956.39;;;19.32;62.10
77323;BME280;66384;51.052;9.850;2023-07-31T12:27:16;97953.79;;;19.31;62.29
77323;BME280;66384;51.052;9.850;2023-07-31T12:29:48;97947.70;;;19.31;62.59
77323;BME280;66384;51.052;9.850;2023-07-31T12:32:24;97947.67;;;19.31;63.14
77323;BME280;66384;51.052;9.850;2023-07-31T12:35:01;97936.88;;;19.31;63.36
77323;BME280;66384;51.052;9.850;2023-07-31T12:37:37;97929.91;;;19.31;63.61
77323;BME280;66384;51.052;9.850;2023-07-31T12:40:11;97929.33;;;19.34;63.63
77323;BME280;66384;51.052;9.850;2023-07-31T12:42:43;97930.36;;;19.34;63.48
77323;BME280;66384;51.052;9.850;2023-07-31T12:45:15;97924.60;;;19.35;63.37
77323;BME280;66384;51.052;9.850;2023-07-31T12:47:46;97921.23;;;19.38;62.96
77323;BME280;66384;51.052;9.850;2023-07-31T12:50:18;97914.66;;;19.35;62.62
77323;BME280;66384;51.052;9.850;2023-07-31T12:52:50;97911.02;;;19.33;62.65
77323;BME280;66384;51.052;9.850;2023-07-31T12:55:21;97910.20;;;19.31;62.51
77323;BME280;66384;51.052;9.850;2023-07-31T12:57:53;97906.58;;;19.29;62.60
77323;BME280;66384;51.052;9.850;2023-07-31T13:00:25;97905.21;;;19.28;62.44
77323;BME280;66384;51.052;9.850;2023-07-31T13:02:57;97901.44;;;19.25;62.30
77323;BME280;66384;51.052;9.850;2023-07-31T13:05:29;97894.86;;;19.23;62.57
77323;BME280;66384;51.052;9.850;2023-07-31T13:08:00;97899.06;;;19.22;62.59
77323;BME280;66384;51.052;9.850;2023-07-31T13:10:32;97904.67;;;19.21;62.42
77323;BME280;66384;51.052;9.850;2023-07-31T13:13:04;97901.04;;;19.19;62.32
77323;BME280;66384;51.052;9.850;2023-07-31T13:15:36;97896.20;;;19.18;61.73
77323;BME280;66384;51.052;9.850;2023-07-31T13:18:07;97897.09;;;19.16;61.98
77323;BME280;66384;51.052;9.850;2023-07-31T13:20:39;97896.05;;;19.16;62.17
77323;BME280;66384;51.052;9.850;2023-07-31T13:23:10;97893.40;;;19.18;62.24
77323;BME280;66384;51.052;9.850;2023-07-31T13:25:42;97891.41;;;19.21;62.36
77323;BME280;66384;51.052;9.850;2023-07-31T13:28:13;97891.86;;;19.25;62.38
77323;BME280;66384;51.052;9.850;2023-07-31T13:30:45;97884.99;;;19.27;61.93